createdAt,value
2019-04-06T00:01:29.141Z,15.70
2019-04-06T00:04:16.211Z,17.37
2019-04-06T00:07:03.195Z,15.00
2019-04-06T00:09:50.733Z,15.07
2019-04-06T00:12:37.677Z,16.10
2019-04-06T00:15:24.936Z,14.43
2019-04-06T00:18:11.882Z,13.27
2019-04-06T00:20:59.187Z,15.10
2019-04-06T00:23:46.655Z,17.53
2019-04-06T00:26:33.771Z,16.17
2019-04-06T00:29:20.567Z,20.50
2019-04-06T00:32:27.573Z,14.20
2019-04-06T00:35:14.926Z,14.57
2019-04-06T00:38:01.835Z,27.97
2019-04-06T00:40:48.796Z,32.73
2019-04-06T00:43:36.061Z,57.30
2019-04-06T00:46:23.173Z,22.23
2019-04-06T00:49:10.614Z,17.87
2019-04-06T00:51:57.345Z,16.73
2019-04-06T00:54:44.017Z,20.37
2019-04-06T00:57:31.298Z,18.20
2019-04-06T01:00:18.906Z,28.10
2019-04-06T01:03:06.344Z,51.83
2019-04-06T01:05:53.827Z,34.63
2019-04-06T01:08:41.250Z,28.30
2019-04-06T01:11:28.635Z,26.17
2019-04-06T01:14:15.959Z,23.47
2019-04-06T01:17:03.295Z,26.63
2019-04-06T01:19:50.793Z,19.60
2019-04-06T01:22:38.037Z,19.60
2019-04-06T01:25:24.909Z,19.10
2019-04-06T01:28:11.572Z,24.23
2019-04-06T01:30:58.819Z,25.40
2019-04-06T01:33:45.911Z,20.77
2019-04-06T01:36:33.025Z,20.23
2019-04-06T01:39:20.398Z,18.57
2019-04-06T01:42:07.378Z,21.43
2019-04-06T01:44:54.760Z,17.63
2019-04-06T01:47:42.075Z,18.17
2019-04-06T01:50:29.439Z,18.33
2019-04-06T01:53:16.862Z,23.07
2019-04-06T01:56:04.237Z,19.63
2019-04-06T01:58:51.297Z,19.73
2019-04-06T02:01:40.342Z,21.60
2019-04-06T02:04:27.438Z,21.37
2019-04-06T02:07:14.714Z,21.17
2019-04-06T02:10:02.211Z,21.80
2019-04-06T02:12:49.752Z,20.43
2019-04-06T02:15:36.941Z,19.53
2019-04-06T02:18:24.269Z,21.13
2019-04-06T02:21:11.443Z,19.57
2019-04-06T02:23:58.731Z,18.63
2019-04-06T02:26:45.698Z,18.80
2019-04-06T02:29:32.596Z,19.27
2019-04-06T02:32:21.507Z,19.50
2019-04-06T02:35:26.215Z,22.57
2019-04-06T02:38:24.077Z,21.13
2019-04-06T02:41:15.296Z,21.63
2019-04-06T02:44:02.735Z,21.67
2019-04-06T02:46:49.708Z,19.83
2019-04-06T02:49:37.431Z,18.37
2019-04-06T02:52:24.409Z,20.73
2019-04-06T02:55:12.030Z,21.40
2019-04-06T02:57:59.213Z,22.20
2019-04-06T03:00:46.574Z,22.87
2019-04-06T03:03:33.618Z,21.80
2019-04-06T03:06:20.706Z,23.37
2019-04-06T03:09:10.997Z,21.00
2019-04-06T03:11:56.267Z,23.13
2019-04-06T03:14:44.670Z,24.23
2019-04-06T03:17:32.025Z,25.53
2019-04-06T03:20:19.666Z,24.37
2019-04-06T03:23:07.253Z,21.23
2019-04-06T03:25:54.718Z,20.93
2019-04-06T03:28:41.768Z,18.43
2019-04-06T03:31:29.374Z,21.03
2019-04-06T03:34:20.576Z,27.90
2019-04-06T03:37:05.763Z,20.93
2019-04-06T03:39:52.595Z,27.40
2019-04-06T03:42:40.037Z,20.30
2019-04-06T03:45:27.187Z,19.30
2019-04-06T03:48:14.497Z,19.63
2019-04-06T03:51:01.515Z,19.10
2019-04-06T03:53:48.806Z,21.93
2019-04-06T03:56:35.574Z,22.33
2019-04-06T03:59:22.732Z,22.83
2019-04-06T04:02:10.309Z,21.70
2019-04-06T04:04:57.366Z,23.53
2019-04-06T04:07:44.839Z,21.83
2019-04-06T04:10:34.869Z,20.03
2019-04-06T04:13:22.114Z,21.90
2019-04-06T04:16:09.245Z,20.20
2019-04-06T04:18:56.609Z,21.10
2019-04-06T04:21:43.898Z,21.03
2019-04-06T04:24:31.256Z,21.97
2019-04-06T04:27:28.294Z,20.03
2019-04-06T04:30:08.970Z,24.87
2019-04-06T04:32:56.024Z,21.37
2019-04-06T04:35:43.191Z,21.10
2019-04-06T04:38:30.743Z,22.13
2019-04-06T04:41:17.723Z,19.67
2019-04-06T04:44:04.819Z,23.20
2019-04-06T04:46:52.190Z,23.70
2019-04-06T04:49:39.465Z,24.30
2019-04-06T04:52:26.737Z,22.30
2019-04-06T04:55:14.137Z,24.97
2019-04-06T04:58:00.831Z,25.80
2019-04-06T05:00:47.868Z,32.17
2019-04-06T05:03:34.825Z,29.00
2019-04-06T05:06:21.800Z,24.00
2019-04-06T05:09:09.273Z,26.87
2019-04-06T05:11:56.038Z,27.90
2019-04-06T05:15:00.260Z,26.00
2019-04-06T05:17:47.408Z,23.07
2019-04-06T05:20:34.780Z,23.97
2019-04-06T05:23:22.064Z,21.37
2019-04-06T05:26:09.746Z,22.93
2019-04-06T05:28:56.848Z,25.23
2019-04-06T05:31:44.063Z,22.50
2019-04-06T05:34:31.447Z,24.80
2019-04-06T05:37:18.422Z,26.03
2019-04-06T05:40:05.954Z,26.07
2019-04-06T05:42:53.221Z,26.03
2019-04-06T05:45:40.725Z,28.40
2019-04-06T05:48:27.765Z,24.80
2019-04-06T05:51:14.824Z,26.27
2019-04-06T05:54:01.807Z,29.47
2019-04-06T05:56:49.433Z,25.53
2019-04-06T05:59:40.325Z,27.90
2019-04-06T06:02:24.922Z,27.63
2019-04-06T06:05:13.477Z,27.43
2019-04-06T06:08:00.720Z,27.73
2019-04-06T06:10:48.055Z,35.57
2019-04-06T06:13:35.358Z,33.67
2019-04-06T06:16:22.621Z,33.40
2019-04-06T06:19:09.627Z,31.53
2019-04-06T06:21:56.981Z,31.97
2019-04-06T06:24:44.040Z,31.43
2019-04-06T06:27:31.703Z,34.47
2019-04-06T06:30:18.984Z,28.60
2019-04-06T06:33:06.117Z,27.83
2019-04-06T06:35:53.490Z,26.07
2019-04-06T06:38:41.463Z,25.60
2019-04-06T06:41:28.792Z,26.67
2019-04-06T06:44:16.058Z,26.33
2019-04-06T06:47:03.218Z,27.50
2019-04-06T06:49:50.261Z,26.80
2019-04-06T06:52:37.438Z,29.43
2019-04-06T06:55:26.620Z,26.87
2019-04-06T06:58:24.209Z,30.67
2019-04-06T07:01:03.299Z,25.93
2019-04-06T07:03:50.831Z,24.93
2019-04-06T07:06:38.185Z,27.80
2019-04-06T07:09:25.043Z,22.97
2019-04-06T07:12:12.624Z,22.33
2019-04-06T07:14:59.695Z,24.23
2019-04-06T07:17:46.898Z,25.17
2019-04-06T07:20:33.878Z,23.60
2019-04-06T07:23:21.097Z,21.53
2019-04-06T07:26:08.574Z,23.07
2019-04-06T07:28:55.866Z,22.37
2019-04-06T07:31:42.865Z,20.60
2019-04-06T07:34:30.085Z,20.63
2019-04-06T07:37:17.166Z,23.67
2019-04-06T07:40:06.681Z,21.77
2019-04-06T07:42:54.043Z,20.17
2019-04-06T07:45:41.318Z,22.90
2019-04-06T07:48:28.248Z,19.73
2019-04-06T07:51:15.802Z,19.73
2019-04-06T07:54:02.911Z,21.10
2019-04-06T07:56:50.105Z,24.33
2019-04-06T07:59:37.265Z,25.93
2019-04-06T08:02:24.567Z,24.90
2019-04-06T08:05:12.284Z,25.77
2019-04-06T08:07:59.433Z,23.33
2019-04-06T08:10:46.429Z,22.60
2019-04-06T08:13:33.820Z,23.37
2019-04-06T08:16:21.023Z,21.20
2019-04-06T08:19:08.316Z,21.93
2019-04-06T08:21:55.720Z,21.37
2019-04-06T08:24:42.959Z,20.60
2019-04-06T08:27:30.204Z,21.07
2019-04-06T08:30:17.234Z,21.87
2019-04-06T08:33:04.605Z,22.53
2019-04-06T08:35:51.834Z,22.27
2019-04-06T08:38:39.362Z,20.80
2019-04-06T08:41:26.438Z,22.27
2019-04-06T08:44:13.323Z,20.27
2019-04-06T08:47:00.169Z,21.93
2019-04-06T08:49:47.379Z,22.00
2019-04-06T08:52:34.179Z,22.37
2019-04-06T08:55:21.842Z,21.95
2019-04-06T08:58:09.485Z,21.23
2019-04-06T09:00:57.374Z,22.70
2019-04-06T09:03:45.179Z,22.80
2019-04-06T09:06:32.866Z,22.10
2019-04-06T09:09:20.341Z,22.65
2019-04-06T09:12:08.110Z,22.32
2019-04-06T09:14:55.960Z,22.20
2019-04-06T09:17:45.154Z,22.27
2019-04-06T09:20:32.953Z,21.90
2019-04-06T09:23:20.850Z,21.82
2019-04-06T09:26:08.569Z,21.62
2019-04-06T09:28:56.108Z,21.55
2019-04-06T09:31:43.898Z,22.62
2019-04-06T09:34:31.386Z,22.77
2019-04-06T09:37:19.024Z,20.37
2019-04-06T09:40:07.174Z,22.37
2019-04-06T09:42:55.090Z,21.37
2019-04-06T09:45:44.082Z,21.85
2019-04-06T09:48:35.895Z,24.25
2019-04-06T09:51:41.281Z,22.77
2019-04-06T09:54:33.430Z,21.82
2019-04-06T09:57:28.143Z,22.65
2019-04-06T10:00:17.602Z,21.70
2019-04-06T10:03:12.741Z,23.98
2019-04-06T10:06:17.949Z,24.43
2019-04-06T10:09:12.186Z,25.40
2019-04-06T10:12:13.312Z,25.23
2019-04-06T10:15:02.847Z,24.25
2019-04-06T10:17:58.118Z,24.52
2019-04-06T10:20:47.831Z,26.35
2019-04-06T10:23:37.269Z,25.55
2019-04-06T10:26:32.734Z,25.75
2019-04-06T10:29:47.618Z,26.60
2019-04-06T10:32:31.810Z,28.00
2019-04-06T10:35:38.873Z,27.48
2019-04-06T10:38:43.143Z,28.40
2019-04-06T10:41:44.436Z,27.13
2019-04-06T10:44:36.487Z,28.55
2019-04-06T10:47:37.839Z,27.42
2019-04-06T10:50:26.884Z,27.55
2019-04-06T10:53:32.404Z,28.62
2019-04-06T10:56:24.478Z,27.65
2019-04-06T10:59:19.822Z,28.60
2019-04-06T11:02:25.243Z,27.00
2019-04-06T11:05:15.075Z,28.23
2019-04-06T11:08:16.469Z,29.07
2019-04-06T11:11:09.048Z,29.90
2019-04-06T11:14:04.341Z,29.05
2019-04-06T11:17:00.067Z,29.87
2019-04-06T11:20:07.271Z,30.48
2019-04-06T11:22:59.108Z,28.62
2019-04-06T11:26:04.507Z,30.27
2019-04-06T11:28:59.845Z,29.82
2019-04-06T11:31:55.205Z,30.12
2019-04-06T11:34:53.268Z,29.20
2019-04-06T11:38:00.538Z,31.40
2019-04-06T11:40:58.699Z,28.92
2019-04-06T11:43:56.697Z,28.52
2019-04-06T11:46:58.183Z,29.90
2019-04-06T11:49:59.762Z,32.05
2019-04-06T11:52:52.127Z,32.45
2019-04-06T11:55:41.162Z,32.33
2019-04-06T11:58:42.659Z,30.35
2019-04-06T12:01:31.616Z,30.52
2019-04-06T12:04:21.163Z,31.62
2019-04-06T12:07:13.325Z,31.20
2019-04-06T12:10:08.608Z,29.67
2019-04-06T12:12:58.217Z,28.47
2019-04-06T12:15:56.799Z,29.13
2019-04-06T12:19:00.703Z,30.25
2019-04-06T12:22:09.525Z,30.90
2019-04-06T12:25:18.529Z,28.95
2019-04-06T12:28:14.674Z,31.00
2019-04-06T12:31:15.560Z,31.40
2019-04-06T12:34:04.942Z,31.00
2019-04-06T12:36:57.132Z,29.52
2019-04-06T12:39:53.416Z,30.27
2019-04-06T12:43:00.019Z,32.23
2019-04-06T12:46:05.176Z,27.70
2019-04-06T12:48:57.168Z,26.37
2019-04-06T12:51:49.330Z,26.68
2019-04-06T12:54:41.341Z,26.35
2019-04-06T12:57:33.218Z,29.57
2019-04-06T13:00:22.548Z,27.20
2019-04-06T13:03:17.415Z,27.13
2019-04-06T13:06:06.696Z,26.30
2019-04-06T13:09:16.930Z,26.55
2019-04-06T13:12:13.544Z,25.95
2019-04-06T13:15:08.718Z,26.00
2019-04-06T13:18:11.225Z,26.02
2019-04-06T13:21:22.241Z,27.45
2019-04-06T13:24:20.606Z,25.65
2019-04-06T13:27:26.437Z,27.00
2019-04-06T13:30:30.841Z,26.50
2019-04-06T13:33:23.047Z,25.55
2019-04-06T13:36:18.242Z,24.40
2019-04-06T13:39:09.089Z,25.45
2019-04-06T13:42:10.190Z,23.60
2019-04-06T13:45:02.168Z,24.87
2019-04-06T13:48:00.229Z,24.27
2019-04-06T13:50:52.638Z,22.62
2019-04-06T13:53:51.157Z,23.10
2019-04-06T13:56:40.780Z,23.87
2019-04-06T13:59:33.414Z,24.98
2019-04-06T14:02:37.388Z,23.80
2019-04-06T14:05:29.395Z,23.30
2019-04-06T14:08:25.128Z,22.50
2019-04-06T14:11:20.279Z,21.68
2019-04-06T14:14:25.839Z,22.37
2019-04-06T14:17:30.243Z,22.85
2019-04-06T14:20:22.874Z,22.85
2019-04-06T14:23:12.122Z,22.85
2019-04-06T14:26:07.003Z,21.85
2019-04-06T14:28:56.582Z,21.35
2019-04-06T14:31:45.824Z,21.73
2019-04-06T14:34:51.076Z,22.65
2019-04-06T14:37:49.238Z,21.17
2019-04-06T14:40:47.311Z,22.42
2019-04-06T14:43:54.483Z,21.50
2019-04-06T14:46:52.783Z,20.77
2019-04-06T14:49:45.281Z,20.57
2019-04-06T14:52:50.292Z,20.72
2019-04-06T14:55:40.115Z,19.67
2019-04-06T14:58:30.180Z,20.40
2019-04-06T15:01:38.481Z,21.00
2019-04-06T15:04:24.870Z,21.23
2019-04-06T15:07:30.336Z,20.95
2019-04-06T15:10:22.535Z,21.42
2019-04-06T15:13:23.684Z,20.68
2019-04-06T15:16:22.029Z,21.17
2019-04-06T15:19:14.433Z,21.27
2019-04-06T15:22:04.392Z,21.35
2019-04-06T15:25:05.970Z,19.95
2019-04-06T15:28:11.773Z,21.50
2019-04-06T15:31:19.450Z,20.85
2019-04-06T15:34:10.781Z,20.30
2019-04-06T15:37:08.584Z,19.48
2019-04-06T15:39:58.578Z,20.70
2019-04-06T15:42:54.117Z,19.57
2019-04-06T15:45:46.669Z,19.98
2019-04-06T15:48:44.457Z,20.80
2019-04-06T15:51:39.465Z,20.43
2019-04-06T15:54:34.345Z,20.37
2019-04-06T15:57:24.076Z,20.60
2019-04-06T16:00:13.516Z,19.70
2019-04-06T16:03:08.852Z,19.20
2019-04-06T16:06:01.297Z,19.37
2019-04-06T16:08:56.145Z,20.45
2019-04-06T16:11:48.485Z,19.73
2019-04-06T16:14:37.934Z,18.85
2019-04-06T16:17:42.531Z,20.12
2019-04-06T16:20:31.998Z,18.85
2019-04-06T16:23:21.912Z,19.52
2019-04-06T16:26:10.921Z,18.65
2019-04-06T16:29:00.193Z,18.92
2019-04-06T16:32:10.839Z,19.27
2019-04-06T16:35:04.423Z,20.80
2019-04-06T16:37:56.510Z,21.05
2019-04-06T16:41:02.347Z,23.47
2019-04-06T16:43:51.912Z,23.30
2019-04-06T16:46:50.529Z,21.10
2019-04-06T16:49:48.852Z,21.25
2019-04-06T16:52:50.334Z,20.17
2019-04-06T16:55:39.230Z,19.73
2019-04-06T16:58:45.847Z,20.57
2019-04-06T17:01:34.517Z,19.57
2019-04-06T17:04:23.389Z,20.57
2019-04-06T17:07:17.903Z,20.90
2019-04-06T17:10:26.389Z,22.93
2019-04-06T17:13:18.035Z,21.73
2019-04-06T17:16:12.653Z,22.70
2019-04-06T17:19:10.032Z,22.57
2019-04-06T17:21:58.886Z,20.20
2019-04-06T17:25:02.922Z,20.23
2019-04-06T17:28:00.575Z,20.57
2019-04-06T17:31:05.778Z,22.53
2019-04-06T17:33:54.751Z,20.90
2019-04-06T17:36:52.311Z,22.90
2019-04-06T17:39:56.062Z,21.23
2019-04-06T17:43:00.891Z,20.50
2019-04-06T17:45:55.490Z,19.27
2019-04-06T17:48:46.825Z,19.33
2019-04-06T17:51:53.281Z,19.67
2019-04-06T17:54:44.886Z,47.50
2019-04-06T17:57:39.534Z,24.67
2019-04-06T18:00:30.717Z,22.33
2019-04-06T18:03:22.477Z,20.97
2019-04-06T18:06:17.123Z,21.90
2019-04-06T18:09:08.674Z,21.63
2019-04-06T18:11:57.666Z,20.03
2019-04-06T18:14:44.969Z,21.53
2019-04-06T18:17:32.040Z,20.30
2019-04-06T18:20:19.676Z,19.43
2019-04-06T18:23:06.943Z,19.90
2019-04-06T18:25:54.512Z,20.20
2019-04-06T18:28:41.791Z,19.73
2019-04-06T18:31:46.816Z,21.20
2019-04-06T18:34:34.200Z,21.43
2019-04-06T18:37:23.495Z,19.03
2019-04-06T18:40:12.491Z,19.63
2019-04-06T18:42:59.984Z,20.30
2019-04-06T18:45:47.168Z,19.63
2019-04-06T18:48:34.417Z,20.17
2019-04-06T18:51:21.646Z,19.83
2019-04-06T18:54:09.884Z,20.07
2019-04-06T18:56:57.309Z,19.50
2019-04-06T18:59:44.091Z,19.67
2019-04-06T19:02:31.530Z,20.33
2019-04-06T19:05:19.378Z,27.20
2019-04-06T19:08:06.896Z,23.57
2019-04-06T19:10:55.905Z,22.23
2019-04-06T19:13:42.826Z,21.07
2019-04-06T19:16:29.929Z,20.47
2019-04-06T19:19:17.019Z,21.33
2019-04-06T19:22:04.749Z,20.37
2019-04-06T19:24:52.074Z,19.20
2019-04-06T19:27:39.230Z,20.87
2019-04-06T19:30:27.283Z,25.60
2019-04-06T19:33:23.342Z,20.47
2019-04-06T19:36:03.737Z,19.77
2019-04-06T19:38:51.092Z,20.93
2019-04-06T19:41:38.156Z,20.47
2019-04-06T19:44:25.327Z,20.03
2019-04-06T19:47:12.666Z,23.93
2019-04-06T19:49:59.702Z,22.87
2019-04-06T19:52:47.041Z,25.87
2019-04-06T19:55:34.564Z,22.93
2019-04-06T19:58:21.723Z,22.90
2019-04-06T20:01:09.062Z,23.73
2019-04-06T20:03:56.470Z,19.37
2019-04-06T20:06:43.650Z,19.33
2019-04-06T20:09:30.978Z,24.00
2019-04-06T20:12:17.754Z,47.30
2019-04-06T20:15:06.926Z,24.23
2019-04-06T20:17:53.850Z,25.97
2019-04-06T20:20:41.081Z,23.20
2019-04-06T20:23:28.739Z,29.30
2019-04-06T20:26:15.643Z,24.43
2019-04-06T20:29:02.677Z,25.43
2019-04-06T20:31:49.756Z,26.67
2019-04-06T20:34:37.587Z,18.50
2019-04-06T20:37:25.200Z,19.57
2019-04-06T20:40:12.841Z,20.87
2019-04-06T20:42:59.873Z,24.57
2019-04-06T20:45:47.342Z,22.13
2019-04-06T20:48:34.089Z,24.87
2019-04-06T20:51:21.472Z,23.07
2019-04-06T20:54:09.134Z,22.50
2019-04-06T20:56:58.241Z,23.83
2019-04-06T20:59:45.863Z,22.87
2019-04-06T21:02:33.309Z,23.13
2019-04-06T21:05:20.443Z,21.03
2019-04-06T21:08:07.940Z,21.47
2019-04-06T21:10:55.231Z,22.23
2019-04-06T21:13:42.408Z,25.20
2019-04-06T21:16:29.838Z,22.03
2019-04-06T21:19:16.869Z,22.47
2019-04-06T21:22:04.085Z,22.70
2019-04-06T21:24:51.494Z,21.00
2019-04-06T21:27:38.486Z,23.90
2019-04-06T21:30:25.742Z,22.20
2019-04-06T21:33:13.193Z,26.13
2019-04-06T21:36:00.544Z,24.83
2019-04-06T21:38:48.183Z,25.20
2019-04-06T21:41:35.458Z,25.73
2019-04-06T21:44:23.018Z,23.77
2019-04-06T21:47:10.961Z,24.10
2019-04-06T21:49:58.235Z,22.20
2019-04-06T21:52:45.418Z,22.23
2019-04-06T21:55:33.106Z,25.23
2019-04-06T21:58:20.175Z,20.53
2019-04-06T22:01:08.230Z,27.53
2019-04-06T22:03:55.313Z,22.93
2019-04-06T22:06:42.573Z,25.90
2019-04-06T22:09:29.797Z,24.63
2019-04-06T22:12:17.432Z,22.70
2019-04-06T22:15:05.897Z,25.60
2019-04-06T22:17:53.310Z,24.70
2019-04-06T22:20:41.058Z,24.87
2019-04-06T22:23:39.715Z,25.23
2019-04-06T22:26:17.121Z,31.30
2019-04-06T22:29:04.842Z,28.53
2019-04-06T22:31:51.878Z,24.40
2019-04-06T22:34:40.963Z,24.53
2019-04-06T22:37:28.004Z,24.17
2019-04-06T22:40:16.457Z,25.73
2019-04-06T22:43:04.017Z,23.27
2019-04-06T22:45:51.108Z,24.67
2019-04-06T22:48:37.918Z,27.60
2019-04-06T22:51:24.977Z,26.23
2019-04-06T22:54:12.815Z,27.77
2019-04-06T22:56:59.951Z,26.47
2019-04-06T22:59:46.934Z,28.50
2019-04-06T23:02:36.199Z,25.53
2019-04-06T23:05:27.710Z,24.60
2019-04-06T23:08:15.789Z,23.17
2019-04-06T23:11:02.877Z,24.90
2019-04-06T23:13:50.332Z,21.67
2019-04-06T23:16:38.005Z,23.13
2019-04-06T23:19:24.795Z,21.03
2019-04-06T23:22:11.817Z,21.40
2019-04-06T23:24:59.140Z,23.57
2019-04-06T23:27:46.801Z,23.33
2019-04-06T23:30:33.971Z,22.73
2019-04-06T23:33:21.260Z,22.63
2019-04-06T23:36:08.947Z,23.37
2019-04-06T23:38:55.659Z,22.30
2019-04-06T23:41:43.747Z,26.87
2019-04-06T23:44:31.777Z,27.33
2019-04-06T23:47:19.167Z,25.50
2019-04-06T23:50:06.748Z,27.10
2019-04-06T23:52:53.995Z,22.93
2019-04-06T23:55:41.175Z,25.47
2019-04-06T23:58:29.596Z,23.57
